createdAt,value
2023-05-13T00:02:21.775Z,82.62
2023-05-13T00:04:49.464Z,82.84
2023-05-13T00:07:17.097Z,83.03
2023-05-13T00:09:44.696Z,83.20
2023-05-13T00:12:12.491Z,83.00
2023-05-13T00:14:40.082Z,83.24
2023-05-13T00:17:09.068Z,83.23
2023-05-13T00:19:36.700Z,83.09
2023-05-13T00:22:04.815Z,83.66
2023-05-13T00:24:32.476Z,83.39
2023-05-13T00:27:00.466Z,83.64
2023-05-13T00:29:28.099Z,83.66
2023-05-13T00:31:56.073Z,83.52
2023-05-13T00:34:25.270Z,83.73
2023-05-13T00:36:53.183Z,83.45
2023-05-13T00:39:20.976Z,83.62
2023-05-13T00:41:48.671Z,83.63
2023-05-13T00:44:16.309Z,84.05
2023-05-13T00:46:44.009Z,83.93
2023-05-13T00:49:11.824Z,83.86
2023-05-13T00:51:40.860Z,84.05
2023-05-13T00:54:08.648Z,83.99
2023-05-13T00:56:38.624Z,83.98
2023-05-13T00:59:07.751Z,84.13
2023-05-13T01:01:45.486Z,83.82
2023-05-13T01:04:25.636Z,83.93
2023-05-13T01:07:09.321Z,83.77
2023-05-13T01:09:49.943Z,84.11
2023-05-13T01:12:43.398Z,84.06
2023-05-13T01:15:15.673Z,84.31
2023-05-13T01:17:51.294Z,84.12
2023-05-13T01:20:22.366Z,83.94
2023-05-13T01:22:52.074Z,84.28
2023-05-13T01:25:19.977Z,84.12
2023-05-13T01:27:47.910Z,83.97
2023-05-13T01:30:18.037Z,83.67
2023-05-13T01:32:46.672Z,83.60
2023-05-13T01:35:17.423Z,83.52
2023-05-13T01:37:47.822Z,83.67
2023-05-13T01:40:31.226Z,83.54
2023-05-13T01:43:03.250Z,83.46
2023-05-13T01:45:32.381Z,83.77
2023-05-13T01:48:01.169Z,84.24
2023-05-13T01:50:38.083Z,83.93
2023-05-13T01:53:06.643Z,83.97
2023-05-13T01:55:35.722Z,83.98
2023-05-13T01:58:05.173Z,83.81
2023-05-13T02:00:33.254Z,83.91
2023-05-13T02:03:00.976Z,83.99
2023-05-13T02:05:28.914Z,84.05
2023-05-13T02:07:57.391Z,83.92
2023-05-13T02:10:25.269Z,83.92
2023-05-13T02:12:54.984Z,83.97
2023-05-13T02:15:22.804Z,83.75
2023-05-13T02:17:51.196Z,83.46
2023-05-13T02:20:20.487Z,83.53
2023-05-13T02:22:48.640Z,83.61
2023-05-13T02:25:16.282Z,83.64
2023-05-13T02:27:44.195Z,83.58
2023-05-13T02:30:13.819Z,83.47
2023-05-13T02:32:44.056Z,83.71
2023-05-13T02:35:11.820Z,83.41
2023-05-13T02:37:40.041Z,83.31
2023-05-13T02:40:09.317Z,83.09
2023-05-13T02:42:37.249Z,83.08
2023-05-13T02:45:05.806Z,83.14
2023-05-13T02:47:36.898Z,82.96
2023-05-13T02:50:09.857Z,83.17
2023-05-13T02:52:39.405Z,83.13
2023-05-13T02:55:09.352Z,83.18
2023-05-13T02:57:38.573Z,82.93
2023-05-13T03:00:07.990Z,83.18
2023-05-13T03:02:37.090Z,83.35
2023-05-13T03:05:05.279Z,83.48
2023-05-13T03:07:33.214Z,83.56
2023-05-13T03:10:00.948Z,83.57
2023-05-13T03:12:29.907Z,83.42
2023-05-13T03:14:57.546Z,83.33
2023-05-13T03:17:25.497Z,83.42
2023-05-13T03:19:54.495Z,83.47
2023-05-13T03:22:22.094Z,83.55
2023-05-13T03:24:50.200Z,83.40
2023-05-13T03:27:20.348Z,83.62
2023-05-13T03:29:48.511Z,83.51
2023-05-13T03:32:16.416Z,83.83
2023-05-13T03:34:44.152Z,83.61
2023-05-13T03:37:13.150Z,83.71
2023-05-13T03:39:40.926Z,84.06
2023-05-13T03:42:09.536Z,84.41
2023-05-13T03:44:38.820Z,84.14
2023-05-13T03:47:07.987Z,83.94
2023-05-13T03:49:37.239Z,84.21
2023-05-13T03:52:08.372Z,84.12
2023-05-13T03:54:37.826Z,84.92
2023-05-13T03:57:05.760Z,84.38
2023-05-13T03:59:33.395Z,84.29
2023-05-13T04:02:01.730Z,84.12
2023-05-13T04:04:29.494Z,84.17
2023-05-13T04:06:58.621Z,84.36
2023-05-13T04:09:26.281Z,84.61
2023-05-13T04:11:55.739Z,84.87
2023-05-13T04:14:23.856Z,84.79
2023-05-13T04:16:51.590Z,85.25
2023-05-13T04:19:19.279Z,85.24
2023-05-13T04:21:47.531Z,85.34
2023-05-13T04:24:16.659Z,85.33
2023-05-13T04:26:44.438Z,85.36
2023-05-13T04:29:13.670Z,85.54
2023-05-13T04:31:42.215Z,85.48
2023-05-13T04:34:10.079Z,85.85
2023-05-13T04:36:37.788Z,85.45
2023-05-13T04:39:05.413Z,85.63
2023-05-13T04:41:33.438Z,85.38
2023-05-13T04:44:02.645Z,85.64
2023-05-13T04:46:31.704Z,85.44
2023-05-13T04:48:59.585Z,85.59
2023-05-13T04:51:27.844Z,85.66
2023-05-13T04:53:56.139Z,85.48
2023-05-13T04:56:23.940Z,85.72
2023-05-13T04:58:51.679Z,85.54
2023-05-13T05:01:19.696Z,85.33
2023-05-13T05:03:49.443Z,85.60
2023-05-13T05:06:17.582Z,85.98
2023-05-13T05:08:45.711Z,86.09
2023-05-13T05:11:14.014Z,86.03
2023-05-13T05:13:41.934Z,86.12
2023-05-13T05:16:10.731Z,85.96
2023-05-13T05:18:41.220Z,86.37
2023-05-13T05:21:10.576Z,86.69
2023-05-13T05:23:38.200Z,86.60
2023-05-13T05:26:11.567Z,86.71
2023-05-13T05:28:40.530Z,87.02
2023-05-13T05:31:09.677Z,86.84
2023-05-13T05:33:37.822Z,86.99
2023-05-13T05:36:07.482Z,87.25
2023-05-13T05:38:37.221Z,87.51
2023-05-13T05:41:06.139Z,87.22
2023-05-13T05:43:33.789Z,87.58
2023-05-13T05:46:01.510Z,87.66
2023-05-13T05:48:29.375Z,87.83
2023-05-13T05:50:57.368Z,87.70
2023-05-13T05:53:32.007Z,87.48
2023-05-13T05:56:02.558Z,87.59
2023-05-13T05:58:30.839Z,87.67
2023-05-13T06:01:00.519Z,87.76
2023-05-13T06:03:28.317Z,87.29
2023-05-13T06:05:56.009Z,87.06
2023-05-13T06:08:29.850Z,87.46
2023-05-13T06:10:58.589Z,87.58
2023-05-13T06:13:28.304Z,87.41
2023-05-13T06:15:56.484Z,87.50
2023-05-13T06:18:24.159Z,87.34
2023-05-13T06:20:51.879Z,87.56
2023-05-13T06:23:19.667Z,87.68
2023-05-13T06:25:47.298Z,87.74
2023-05-13T06:28:14.916Z,87.72
2023-05-13T06:30:45.315Z,87.37
2023-05-13T06:33:13.133Z,87.40
2023-05-13T06:35:41.204Z,87.66
2023-05-13T06:38:10.460Z,87.50
2023-05-13T06:40:38.186Z,87.17
2023-05-13T06:43:06.839Z,87.24
2023-05-13T06:45:38.780Z,86.78
2023-05-13T06:48:08.052Z,86.59
2023-05-13T06:50:38.254Z,86.79
2023-05-13T06:53:05.894Z,86.65
2023-05-13T06:55:35.883Z,86.65
2023-05-13T06:58:03.487Z,86.18
2023-05-13T07:00:31.198Z,85.93
2023-05-13T07:02:58.832Z,85.80
2023-05-13T07:05:28.040Z,85.98
2023-05-13T07:07:55.673Z,85.79
2023-05-13T07:10:23.547Z,85.53
2023-05-13T07:12:51.522Z,85.25
2023-05-13T07:15:19.396Z,85.09
2023-05-13T07:17:47.225Z,84.85
2023-05-13T07:20:15.116Z,84.72
2023-05-13T07:22:44.074Z,84.56
2023-05-13T07:25:12.452Z,84.76
2023-05-13T07:27:40.251Z,84.50
2023-05-13T07:30:08.978Z,84.40
2023-05-13T07:32:37.045Z,84.47
2023-05-13T07:35:05.255Z,84.62
2023-05-13T07:37:32.873Z,84.46
2023-05-13T07:40:01.843Z,84.39
2023-05-13T07:42:30.098Z,84.21
2023-05-13T07:44:57.766Z,84.59
2023-05-13T07:47:27.622Z,84.50
2023-05-13T07:49:55.692Z,84.44
2023-05-13T07:52:23.466Z,84.45
2023-05-13T07:54:51.249Z,84.28
2023-05-13T07:57:20.370Z,84.20
2023-05-13T07:59:47.966Z,84.12
2023-05-13T08:02:15.698Z,84.28
2023-05-13T08:04:43.329Z,84.25
2023-05-13T08:07:11.302Z,84.26
2023-05-13T08:09:38.940Z,84.70
2023-05-13T08:12:07.079Z,84.49
2023-05-13T08:14:36.628Z,84.31
2023-05-13T08:17:06.211Z,84.34
2023-05-13T08:19:33.896Z,83.95
2023-05-13T08:22:01.551Z,83.98
2023-05-13T08:24:29.279Z,83.99
2023-05-13T08:26:57.115Z,83.69
2023-05-13T08:29:24.712Z,83.26
2023-05-13T08:31:54.546Z,83.12
2023-05-13T08:34:22.259Z,82.98
2023-05-13T08:36:49.846Z,82.66
2023-05-13T08:39:17.558Z,82.67
2023-05-13T08:41:45.877Z,82.06
2023-05-13T08:44:14.283Z,81.10
2023-05-13T08:46:45.280Z,80.80
2023-05-13T08:49:14.873Z,80.30
2023-05-13T08:51:44.227Z,80.57
2023-05-13T08:54:11.954Z,80.58
2023-05-13T08:56:39.683Z,79.83
2023-05-13T08:59:07.246Z,79.35
2023-05-13T09:01:35.657Z,78.57
2023-05-13T09:04:07.300Z,78.17
2023-05-13T09:06:36.344Z,78.08
2023-05-13T09:09:05.803Z,77.14
2023-05-13T09:11:34.690Z,77.09
2023-05-13T09:14:05.605Z,76.94
2023-05-13T09:16:33.778Z,76.84
2023-05-13T09:19:02.201Z,77.00
2023-05-13T09:21:32.100Z,76.67
2023-05-13T09:24:13.239Z,77.24
2023-05-13T09:26:42.945Z,77.68
2023-05-13T09:29:22.135Z,77.64
2023-05-13T09:31:51.842Z,77.59
2023-05-13T09:34:27.532Z,77.92
2023-05-13T09:37:01.389Z,78.35
2023-05-13T09:39:33.483Z,78.60
2023-05-13T09:42:03.859Z,78.82
2023-05-13T09:44:33.649Z,79.08
2023-05-13T09:47:02.333Z,78.63
2023-05-13T09:49:32.433Z,78.84
2023-05-13T09:52:00.070Z,78.51
2023-05-13T09:54:28.744Z,78.29
2023-05-13T09:57:01.351Z,78.08
2023-05-13T09:59:29.097Z,77.67
2023-05-13T10:02:00.038Z,77.85
2023-05-13T10:04:28.869Z,78.27
2023-05-13T10:06:56.940Z,77.93
2023-05-13T10:09:25.146Z,78.15
2023-05-13T10:11:54.443Z,77.24
2023-05-13T10:14:23.585Z,76.82
2023-05-13T10:16:52.350Z,75.71
2023-05-13T10:19:21.439Z,76.22
2023-05-13T10:21:51.986Z,76.15
2023-05-13T10:24:21.552Z,76.54
2023-05-13T10:26:50.369Z,75.87
2023-05-13T10:29:18.958Z,75.38
2023-05-13T10:31:49.147Z,74.82
2023-05-13T10:34:17.801Z,74.73
2023-05-13T10:37:00.533Z,75.14
2023-05-13T10:39:47.908Z,75.21
2023-05-13T10:42:41.338Z,75.75
2023-05-13T10:45:09.535Z,75.07
2023-05-13T10:47:39.520Z,74.76
2023-05-13T10:50:23.027Z,74.68
2023-05-13T10:52:51.152Z,74.35
2023-05-13T10:55:21.886Z,74.61
2023-05-13T10:58:08.119Z,74.77
2023-05-13T11:00:37.386Z,74.58
2023-05-13T11:03:14.764Z,75.49
2023-05-13T11:05:45.234Z,75.67
2023-05-13T11:08:37.974Z,74.57
2023-05-13T11:11:28.558Z,73.46
2023-05-13T11:14:03.394Z,72.60
2023-05-13T11:16:31.161Z,73.85
2023-05-13T11:19:02.018Z,74.30
2023-05-13T11:21:31.492Z,73.57
2023-05-13T11:24:03.912Z,72.98
2023-05-13T11:26:48.835Z,73.15
2023-05-13T11:29:16.976Z,71.62
2023-05-13T11:31:48.460Z,71.21
2023-05-13T11:34:17.902Z,71.95
2023-05-13T11:36:47.888Z,72.47
2023-05-13T11:39:19.264Z,72.58
2023-05-13T11:41:48.555Z,72.81
2023-05-13T11:44:17.461Z,72.32
2023-05-13T11:46:56.136Z,72.96
2023-05-13T11:49:34.454Z,73.52
2023-05-13T11:52:02.922Z,73.28
2023-05-13T11:54:32.021Z,73.18
2023-05-13T11:56:59.613Z,73.47
2023-05-13T11:59:33.326Z,72.50
2023-05-13T12:02:06.396Z,71.88
2023-05-13T12:04:34.519Z,72.01
2023-05-13T12:07:02.519Z,71.50
2023-05-13T12:09:30.678Z,72.10
2023-05-13T12:11:59.676Z,71.67
2023-05-13T12:14:27.923Z,71.33
2023-05-13T12:16:56.435Z,71.03
2023-05-13T12:19:24.161Z,71.28
2023-05-13T12:21:52.119Z,71.70
2023-05-13T12:24:20.928Z,71.39
2023-05-13T12:26:49.034Z,71.48
2023-05-13T12:29:18.119Z,71.45
2023-05-13T12:32:05.738Z,71.39
2023-05-13T12:34:33.659Z,71.91
2023-05-13T12:37:11.272Z,72.54
2023-05-13T12:39:39.081Z,71.36
2023-05-13T12:42:07.320Z,71.17
2023-05-13T12:44:36.486Z,71.60
2023-05-13T12:47:04.570Z,70.70
2023-05-13T12:49:32.365Z,70.78
2023-05-13T12:52:00.065Z,71.48
2023-05-13T12:54:27.649Z,70.75
2023-05-13T12:56:55.425Z,71.56
2023-05-13T12:59:23.416Z,71.55
2023-05-13T13:01:52.931Z,71.02
2023-05-13T13:04:21.349Z,70.61
2023-05-13T13:06:50.142Z,71.07
2023-05-13T13:09:18.141Z,71.66
2023-05-13T13:11:46.863Z,71.67
2023-05-13T13:14:15.392Z,71.49
2023-05-13T13:16:43.439Z,71.42
2023-05-13T13:19:13.826Z,71.15
2023-05-13T13:21:42.677Z,70.73
2023-05-13T13:24:11.548Z,71.06
2023-05-13T13:26:39.278Z,70.82
2023-05-13T13:29:07.019Z,71.31
2023-05-13T13:31:34.709Z,70.55
2023-05-13T13:34:04.993Z,70.74
2023-05-13T13:36:33.928Z,70.44
2023-05-13T13:39:01.781Z,70.80
2023-05-13T13:41:29.356Z,70.60
2023-05-13T13:43:57.098Z,70.53
2023-05-13T13:46:25.245Z,70.81
2023-05-13T13:48:53.056Z,71.25
2023-05-13T13:51:20.759Z,71.79
2023-05-13T13:53:50.536Z,72.49
2023-05-13T13:56:18.198Z,72.22
2023-05-13T13:58:46.011Z,72.66
2023-05-13T14:01:14.670Z,72.56
2023-05-13T14:03:42.399Z,72.37
2023-05-13T14:06:10.105Z,72.79
2023-05-13T14:08:37.725Z,72.48
2023-05-13T14:11:07.078Z,72.23
2023-05-13T14:13:34.650Z,71.59
2023-05-13T14:16:02.519Z,71.86
2023-05-13T14:18:30.179Z,71.48
2023-05-13T14:20:57.800Z,71.79
2023-05-13T14:23:25.394Z,71.96
2023-05-13T14:25:53.023Z,71.08
2023-05-13T14:28:23.211Z,69.31
2023-05-13T14:30:52.596Z,69.48
2023-05-13T14:33:20.240Z,69.66
2023-05-13T14:35:47.983Z,70.50
2023-05-13T14:38:15.709Z,70.59
2023-05-13T14:40:43.932Z,70.41
2023-05-13T14:43:11.530Z,69.96
2023-05-13T14:45:40.927Z,69.64
2023-05-13T14:48:08.699Z,69.89
2023-05-13T14:50:36.863Z,69.65
2023-05-13T14:53:04.461Z,70.50
2023-05-13T14:55:32.185Z,67.94
2023-05-13T14:58:00.062Z,66.31
2023-05-13T15:00:28.037Z,64.74
2023-05-13T15:02:57.120Z,63.97
2023-05-13T15:05:26.267Z,62.97
2023-05-13T15:07:53.892Z,62.04
2023-05-13T15:10:21.669Z,61.17
2023-05-13T15:12:49.826Z,61.17
2023-05-13T15:15:17.552Z,62.24
2023-05-13T15:17:45.195Z,60.66
2023-05-13T15:20:14.433Z,60.44
2023-05-13T15:22:42.483Z,60.19
2023-05-13T15:25:10.252Z,59.61
2023-05-13T15:27:37.850Z,58.86
2023-05-13T15:30:06.302Z,61.26
2023-05-13T15:32:34.115Z,61.44
2023-05-13T15:35:01.849Z,60.52
2023-05-13T15:37:30.815Z,60.85
2023-05-13T15:39:58.456Z,61.08
2023-05-13T15:42:26.679Z,61.59
2023-05-13T15:44:54.264Z,62.76
2023-05-13T15:47:22.056Z,62.11
2023-05-13T15:49:50.754Z,62.79
2023-05-13T15:52:18.469Z,63.55
2023-05-13T15:54:47.544Z,63.94
2023-05-13T15:57:18.073Z,64.24
2023-05-13T15:59:45.955Z,64.41
2023-05-13T16:02:13.629Z,64.67
2023-05-13T16:04:41.273Z,64.50
2023-05-13T16:07:10.879Z,65.33
2023-05-13T16:09:38.900Z,65.91
2023-05-13T16:12:08.412Z,66.03
2023-05-13T16:14:36.259Z,65.28
2023-05-13T16:17:03.861Z,65.04
2023-05-13T16:19:31.442Z,65.20
2023-05-13T16:21:59.042Z,65.03
2023-05-13T16:24:26.858Z,65.23
2023-05-13T16:26:54.522Z,66.36
2023-05-13T16:29:23.457Z,67.67
2023-05-13T16:31:51.098Z,66.70
2023-05-13T16:34:18.871Z,67.65
2023-05-13T16:36:46.485Z,67.62
2023-05-13T16:39:14.249Z,68.26
2023-05-13T16:41:42.304Z,68.81
2023-05-13T16:44:09.903Z,69.44
2023-05-13T16:46:38.814Z,70.05
2023-05-13T16:49:06.423Z,70.98
2023-05-13T16:51:34.165Z,71.08
2023-05-13T16:54:01.743Z,71.16
2023-05-13T16:56:31.196Z,71.34
2023-05-13T16:58:59.867Z,71.15
2023-05-13T17:01:27.519Z,70.99
2023-05-13T17:03:56.812Z,70.86
2023-05-13T17:06:24.446Z,70.61
2023-05-13T17:08:52.026Z,70.69
2023-05-13T17:11:19.811Z,70.67
2023-05-13T17:13:47.441Z,70.63
2023-05-13T17:16:15.798Z,70.63
2023-05-13T17:18:43.431Z,70.79
2023-05-13T17:21:12.459Z,70.90
2023-05-13T17:23:40.223Z,70.87
2023-05-13T17:26:08.020Z,71.03
2023-05-13T17:28:35.768Z,71.18
2023-05-13T17:31:03.610Z,71.35
2023-05-13T17:33:31.910Z,71.42
2023-05-13T17:35:59.591Z,71.65
2023-05-13T17:38:28.645Z,72.07
2023-05-13T17:40:56.245Z,72.66
2023-05-13T17:43:24.132Z,73.21
2023-05-13T17:45:52.000Z,73.70
2023-05-13T17:48:19.793Z,73.68
2023-05-13T17:50:47.729Z,73.69
2023-05-13T17:53:15.376Z,73.31
2023-05-13T17:55:44.287Z,73.21
2023-05-13T17:58:12.000Z,73.37
2023-05-13T18:00:39.637Z,73.63
2023-05-13T18:03:07.494Z,73.49
2023-05-13T18:05:35.579Z,73.93
2023-05-13T18:08:03.534Z,74.10
2023-05-13T18:10:31.254Z,74.20
2023-05-13T18:13:00.460Z,74.30
2023-05-13T18:15:28.216Z,74.61
2023-05-13T18:17:56.052Z,74.54
2023-05-13T18:20:24.181Z,74.93
2023-05-13T18:22:52.094Z,74.84
2023-05-13T18:25:19.856Z,75.30
2023-05-13T18:27:47.524Z,75.45
2023-05-13T18:30:17.263Z,75.59
2023-05-13T18:32:44.922Z,75.61
2023-05-13T18:35:12.848Z,75.91
2023-05-13T18:37:40.423Z,75.84
2023-05-13T18:40:09.542Z,75.90
2023-05-13T18:42:37.332Z,76.27
2023-05-13T18:45:06.103Z,76.29
2023-05-13T18:47:35.437Z,76.18
2023-05-13T18:50:05.333Z,76.46
2023-05-13T18:52:33.669Z,76.84
2023-05-13T18:55:05.044Z,77.06
2023-05-13T18:57:33.350Z,77.15
2023-05-13T19:00:02.028Z,77.76
2023-05-13T19:02:30.041Z,77.71
2023-05-13T19:04:59.138Z,78.23
2023-05-13T19:07:27.288Z,78.21
2023-05-13T19:09:54.888Z,78.21
2023-05-13T19:12:22.590Z,78.21
2023-05-13T19:14:50.169Z,78.45
2023-05-13T19:17:18.065Z,78.56
2023-05-13T19:19:45.731Z,78.99
2023-05-13T19:22:14.931Z,78.96
2023-05-13T19:24:42.545Z,78.86
2023-05-13T19:27:10.533Z,79.09
2023-05-13T19:29:38.317Z,79.30
2023-05-13T19:32:06.643Z,79.82
2023-05-13T19:34:34.294Z,79.53
2023-05-13T19:37:02.285Z,79.74
2023-05-13T19:39:31.192Z,79.73
2023-05-13T19:41:58.836Z,80.22
2023-05-13T19:44:28.011Z,80.35
2023-05-13T19:46:56.799Z,80.58
2023-05-13T19:49:25.444Z,80.76
2023-05-13T19:51:54.360Z,80.85
2023-05-13T19:54:25.048Z,80.91
2023-05-13T19:56:54.359Z,81.16
2023-05-13T19:59:22.102Z,81.26
2023-05-13T20:01:49.781Z,81.32
2023-05-13T20:04:17.716Z,81.47
2023-05-13T20:06:45.307Z,81.79
2023-05-13T20:09:13.066Z,81.82
2023-05-13T20:11:40.847Z,82.02
2023-05-13T20:14:11.775Z,82.09
2023-05-13T20:16:39.448Z,82.16
2023-05-13T20:19:07.104Z,82.37
2023-05-13T20:21:34.863Z,82.39
2023-05-13T20:24:02.624Z,82.29
2023-05-13T20:26:34.437Z,82.49
2023-05-13T20:29:02.322Z,82.48
2023-05-13T20:31:31.294Z,82.47
2023-05-13T20:33:58.937Z,82.49
2023-05-13T20:36:27.087Z,82.59
2023-05-13T20:38:54.679Z,82.83
2023-05-13T20:41:22.852Z,82.61
2023-05-13T20:43:50.457Z,82.61
2023-05-13T20:46:18.123Z,82.61
2023-05-13T20:48:47.883Z,82.60
2023-05-13T20:51:15.650Z,82.89
2023-05-13T20:53:43.230Z,82.71
2023-05-13T20:56:10.884Z,82.81
2023-05-13T20:58:38.616Z,82.78
2023-05-13T21:01:06.278Z,83.04
2023-05-13T21:03:34.196Z,83.09
2023-05-13T21:06:03.374Z,83.28
2023-05-13T21:08:30.985Z,83.43
2023-05-13T21:10:58.578Z,83.53
2023-05-13T21:13:26.651Z,83.37
2023-05-13T21:15:56.068Z,83.54
2023-05-13T21:18:24.042Z,83.82
2023-05-13T21:20:52.952Z,83.79
2023-05-13T21:23:21.908Z,84.05
2023-05-13T21:25:49.685Z,84.08
2023-05-13T21:28:18.840Z,84.23
2023-05-13T21:30:46.530Z,84.18
2023-05-13T21:33:14.246Z,84.14
2023-05-13T21:35:41.821Z,84.38
2023-05-13T21:38:12.295Z,84.40
2023-05-13T21:40:41.759Z,84.36
2023-05-13T21:43:09.393Z,84.17
2023-05-13T21:45:37.455Z,84.30
2023-05-13T21:48:05.740Z,84.20
2023-05-13T21:50:34.016Z,84.09
2023-05-13T21:53:02.758Z,84.31
2023-05-13T21:55:35.033Z,84.45
2023-05-13T21:58:04.397Z,84.58
2023-05-13T22:00:32.190Z,84.65
2023-05-13T22:03:00.688Z,84.65
2023-05-13T22:05:28.498Z,84.71
2023-05-13T22:07:56.132Z,84.69
2023-05-13T22:10:23.968Z,84.87
2023-05-13T22:12:52.066Z,84.98
2023-05-13T22:15:21.067Z,84.98
2023-05-13T22:17:50.635Z,85.09
2023-05-13T22:20:18.734Z,85.16
2023-05-13T22:22:46.378Z,85.07
2023-05-13T22:25:13.972Z,85.20
2023-05-13T22:27:41.883Z,85.21
2023-05-13T22:30:10.165Z,85.22
2023-05-13T22:32:39.182Z,85.38
2023-05-13T22:35:08.106Z,85.25
2023-05-13T22:37:35.698Z,85.44
2023-05-13T22:40:03.441Z,85.46
2023-05-13T22:42:31.052Z,86.02
2023-05-13T22:44:58.770Z,86.23
2023-05-13T22:47:26.464Z,86.04
2023-05-13T22:49:55.545Z,86.07
2023-05-13T22:52:23.113Z,86.17
2023-05-13T22:54:50.722Z,86.20
2023-05-13T22:57:18.306Z,86.30
2023-05-13T22:59:46.052Z,86.16
2023-05-13T23:02:13.702Z,86.40
2023-05-13T23:04:41.349Z,86.19
2023-05-13T23:07:10.274Z,86.45
2023-05-13T23:09:38.010Z,86.16
2023-05-13T23:12:06.425Z,86.27
2023-05-13T23:14:34.094Z,86.25
2023-05-13T23:17:01.879Z,86.21
2023-05-13T23:19:29.540Z,86.53
2023-05-13T23:21:57.304Z,86.51
2023-05-13T23:24:26.489Z,86.58
2023-05-13T23:26:54.087Z,86.69
2023-05-13T23:29:21.700Z,86.80
2023-05-13T23:31:49.321Z,87.00
2023-05-13T23:34:16.942Z,87.03
2023-05-13T23:36:44.532Z,87.23
2023-05-13T23:39:12.325Z,87.26
2023-05-13T23:41:41.471Z,87.06
2023-05-13T23:44:09.071Z,87.43
2023-05-13T23:46:36.832Z,87.58
2023-05-13T23:49:04.441Z,87.42
2023-05-13T23:51:32.470Z,87.57
2023-05-13T23:54:00.742Z,87.63
2023-05-13T23:56:28.486Z,87.53
2023-05-13T23:58:57.445Z,87.45
